Time;durP1;ratioP1;P1;durP2;ratioP2;P2;SDS_P1;SDS_P2;PMS_P1;PMS_P2;Temp;Humidity;BMP_temperature;BMP_pressure;BME280_temperature;BME280_humidity;BME280_pressure;Samples;Min_cycle;Max_cycle;Signal;HPM_P1;HPM_P2
2023/01/21 00:00:55;;;;;;;1.92;1.60;;;-2.10;99.90;;;;;;5039562;28;20221;-82
2023/01/21 00:03:23;;;;;;;0.40;0.40;;;-2.10;99.90;;;;;;5038866;28;20207;-79
2023/01/21 00:05:50;;;;;;;0.50;0.50;;;-2.10;99.90;;;;;;5038896;28;20196;-79
2023/01/21 00:08:17;;;;;;;0.40;0.40;;;-2.10;99.90;;;;;;5039116;28;20219;-80
2023/01/21 00:10:44;;;;;;;0.50;0.40;;;-2.10;99.90;;;;;;5038035;28;20194;-82
2023/01/21 00:13:11;;;;;;;0.50;0.40;;;-2.20;99.90;;;;;;5039183;28;20209;-82
2023/01/21 00:15:38;;;;;;;0.40;0.40;;;-2.20;99.90;;;;;;5038344;28;20368;-82
2023/01/21 00:18:05;;;;;;;0.50;0.40;;;-2.20;99.90;;;;;;5039410;28;20664;-81
2023/01/21 00:20:33;;;;;;;0.85;0.85;;;-2.20;99.90;;;;;;5038290;28;20222;-81
2023/01/21 00:23:00;;;;;;;2.05;1.95;;;-2.20;99.90;;;;;;5038808;28;20191;-82
2023/01/21 00:25:27;;;;;;;2.38;2.28;;;-2.20;99.90;;;;;;5039377;28;20199;-80
2023/01/21 00:27:54;;;;;;;1.40;1.40;;;-2.20;99.90;;;;;;5044952;28;20305;-79
2023/01/21 00:30:21;;;;;;;0.40;0.40;;;-2.20;99.90;;;;;;5049883;28;20230;-79
2023/01/21 00:32:48;;;;;;;1.42;1.42;;;-2.30;99.90;;;;;;5050823;28;20215;-79
2023/01/21 00:35:15;;;;;;;0.80;0.80;;;-2.20;99.90;;;;;;5051305;28;20200;-79
2023/01/21 00:37:43;;;;;;;0.40;0.40;;;-2.20;99.90;;;;;;5051882;28;20279;-79
2023/01/21 00:40:11;;;;;;;1.50;1.40;;;-2.30;99.90;;;;;;5051338;28;20211;-79
2023/01/21 00:42:38;;;;;;;2.05;1.95;;;-2.30;99.90;;;;;;5052195;28;20266;-78
2023/01/21 00:45:06;;;;;;;0.55;0.55;;;-2.30;99.90;;;;;;5052437;28;20235;-78
2023/01/21 00:47:33;;;;;;;3.50;3.40;;;-2.30;99.90;;;;;;5054081;28;20207;-78
2023/01/21 00:50:00;;;;;;;4.32;4.13;;;-2.30;99.90;;;;;;5056243;28;20206;-80
2023/01/21 00:52:26;;;;;;;0.40;0.40;;;-2.30;99.90;;;;;;5047056;28;20195;-81
2023/01/21 00:54:55;;;;;;;3.65;2.25;;;-2.30;99.90;;;;;;5038732;28;20605;-82
2023/01/21 00:57:21;;;;;;;1.25;1.13;;;-2.30;99.90;;;;;;5038076;28;20314;-82
2023/01/21 00:59:48;;;;;;;0.40;0.40;;;-2.30;99.90;;;;;;5038016;28;20239;-80
2023/01/21 01:02:15;;;;;;;0.73;0.73;;;-2.30;99.90;;;;;;5038369;28;20672;-82
2023/01/21 01:04:42;;;;;;;3.33;2.95;;;-2.30;99.90;;;;;;5046693;28;20255;-80
2023/01/21 01:07:10;;;;;;;0.70;0.70;;;-2.30;99.90;;;;;;5046982;28;20260;-81
2023/01/21 01:09:37;;;;;;;0.40;0.40;;;-2.40;99.90;;;;;;5038070;28;20657;-81
2023/01/21 01:12:06;;;;;;;0.65;0.65;;;-2.30;99.90;;;;;;5037792;28;20235;-82
2023/01/21 01:14:32;;;;;;;0.40;0.40;;;-2.40;99.90;;;;;;5041580;28;20199;-82
2023/01/21 01:16:59;;;;;;;0.40;0.40;;;-2.40;99.90;;;;;;5039000;28;20310;-81
2023/01/21 01:19:26;;;;;;;0.80;0.80;;;-2.40;99.90;;;;;;5038144;28;20195;-82
2023/01/21 01:21:53;;;;;;;2.92;2.28;;;-2.30;99.90;;;;;;5037510;28;20693;-81
2023/01/21 01:24:20;;;;;;;0.50;0.40;;;-2.30;99.90;;;;;;5037890;28;20235;-81
2023/01/21 01:26:47;;;;;;;3.53;3.42;;;-2.30;99.90;;;;;;5038419;28;20231;-82
2023/01/21 01:29:15;;;;;;;1.73;1.63;;;-2.30;99.90;;;;;;5037760;28;20286;-82
2023/01/21 01:31:42;;;;;;;0.40;0.40;;;-2.30;99.90;;;;;;5037893;28;20215;-82
2023/01/21 01:34:09;;;;;;;2.33;2.25;;;-2.30;99.90;;;;;;5037267;28;20699;-80
2023/01/21 01:36:36;;;;;;;1.42;1.40;;;-2.20;99.90;;;;;;5036944;28;20195;-81
2023/01/21 01:39:03;;;;;;;9.80;9.15;;;-2.30;99.90;;;;;;5038349;28;20242;-82
2023/01/21 01:41:33;;;;;;;1.00;0.98;;;-2.20;99.90;;;;;;5038177;28;20760;-82
2023/01/21 01:44:02;;;;;;;0.50;0.50;;;-2.20;99.90;;;;;;5037815;28;20186;-82
2023/01/21 01:46:32;;;;;;;3.10;2.85;;;-2.20;99.90;;;;;;5037045;28;20267;-82
2023/01/21 01:49:05;;;;;;;0.70;0.70;;;-2.30;99.90;;;;;;5037695;28;20219;-82
2023/01/21 01:51:41;;;;;;;0.95;0.93;;;-2.30;99.90;;;;;;5037820;28;20588;-82
2023/01/21 01:54:10;;;;;;;4.53;4.10;;;-2.20;99.90;;;;;;5037142;28;20241;-81
2023/01/21 01:56:41;;;;;;;1.75;1.63;;;-2.20;99.90;;;;;;5036461;28;20473;-82
2023/01/21 01:59:08;;;;;;;2.90;2.80;;;-2.20;99.90;;;;;;5036766;28;20190;-82
2023/01/21 02:01:37;;;;;;;0.40;0.40;;;-2.20;99.90;;;;;;5037004;28;20255;-81
2023/01/21 02:04:09;;;;;;;2.38;2.05;;;-2.20;99.90;;;;;;5037434;28;20205;-82
2023/01/21 02:06:37;;;;;;;3.83;3.63;;;-2.20;99.90;;;;;;5036714;28;20659;-81
2023/01/21 02:09:04;;;;;;;0.65;0.65;;;-2.10;99.90;;;;;;5037166;28;20210;-82
2023/01/21 02:11:31;;;;;;;0.50;0.40;;;-2.20;99.90;;;;;;5037208;28;20188;-82
2023/01/21 02:13:59;;;;;;;3.90;3.53;;;-2.20;99.90;;;;;;5037085;28;20627;-82
2023/01/21 02:16:56;;;;;;;2.53;2.35;;;-2.20;99.90;;;;;;5036779;28;20259;-81
2023/01/21 02:20:11;;;;;;;0.90;0.90;;;-2.30;99.90;;;;;;5034953;28;20613;-82
2023/01/21 02:22:44;;;;;;;0.50;0.50;;;-2.20;99.90;;;;;;4972847;28;20197;-82
2023/01/21 02:25:48;;;;;;;3.15;2.67;;;-2.30;99.90;;;;;;4974406;28;20200;-81
2023/01/21 02:28:51;;;;;;;0.40;0.40;;;-2.30;99.90;;;;;;5026180;28;20657;-81
2023/01/21 02:31:53;;;;;;;0.40;0.40;;;-2.40;99.90;;;;;;5035922;28;20223;-81
2023/01/21 02:34:30;;;;;;;0.50;0.50;;;-2.40;99.90;;;;;;5035637;28;20242;-80
2023/01/21 02:37:08;;;;;;;2.30;2.20;;;-2.50;99.90;;;;;;5036104;28;20219;-81
2023/01/21 02:39:59;;;;;;;0.50;0.50;;;-2.60;99.90;;;;;;5039674;28;20291;-80
2023/01/21 02:42:31;;;;;;;1.35;1.35;;;-2.60;99.90;;;;;;5052330;28;20243;-79
2023/01/21 02:45:04;;;;;;;0.40;0.40;;;-2.60;99.90;;;;;;5052529;28;20260;-80
2023/01/21 02:47:36;;;;;;;0.45;0.45;;;-2.60;99.90;;;;;;5048891;28;20216;-82
2023/01/21 02:50:08;;;;;;;2.35;2.25;;;-2.70;99.90;;;;;;5036765;28;20234;-82
2023/01/21 02:52:35;;;;;;;0.63;0.63;;;-2.70;99.90;;;;;;5036323;28;20266;-82
2023/01/21 02:55:02;;;;;;;0.40;0.40;;;-2.70;99.90;;;;;;5035936;28;20202;-82
2023/01/21 02:57:39;;;;;;;0.70;0.70;;;-2.80;99.90;;;;;;5035518;28;20235;-80
2023/01/21 03:00:11;;;;;;;1.50;1.40;;;-2.80;99.90;;;;;;5036037;28;20286;-81
2023/01/21 03:03:09;;;;;;;0.40;0.40;;;-2.70;99.90;;;;;;5035312;28;20187;-82
2023/01/21 03:05:49;;;;;;;0.60;0.60;;;-2.80;99.90;;;;;;5035928;28;20210;-79
2023/01/21 03:08:21;;;;;;;4.90;3.42;;;-2.80;99.90;;;;;;5036104;28;20219;-82
2023/01/21 03:10:55;;;;;;;0.40;0.40;;;-2.70;99.90;;;;;;5035887;28;20179;-81
2023/01/21 03:19:09;;;;;;;0.50;0.50;;;-2.80;99.90;;;;;;4998956;28;20191;-82
2023/01/21 03:21:38;;;;;;;0.50;0.40;;;-2.80;99.90;;;;;;5035525;28;20214;-82
2023/01/21 03:24:08;;;;;;;0.40;0.40;;;-2.80;99.90;;;;;;5035941;28;20198;-81
2023/01/21 03:26:38;;;;;;;4.72;4.22;;;-2.90;99.90;;;;;;5034982;28;20197;-80
2023/01/21 03:29:09;;;;;;;0.70;0.70;;;-2.80;99.90;;;;;;5035368;28;20258;-80
2023/01/21 03:31:39;;;;;;;0.73;0.73;;;-2.80;99.90;;;;;;5035324;28;20201;-80
2023/01/21 03:34:09;;;;;;;1.23;1.13;;;-2.80;99.90;;;;;;5035848;28;20591;-81
2023/01/21 03:36:45;;;;;;;0.40;0.40;;;-2.80;99.90;;;;;;5036078;28;20202;-80
2023/01/21 03:39:18;;;;;;;2.47;2.38;;;-2.80;99.90;;;;;;5035531;28;20197;-80
2023/01/21 03:41:46;;;;;;;2.25;2.05;;;-2.70;99.90;;;;;;5045381;28;20628;-81
2023/01/21 03:44:13;;;;;;;0.68;0.68;;;-2.60;99.90;;;;;;5035901;28;20667;-79
2023/01/21 03:46:46;;;;;;;1.02;1.02;;;-2.70;99.90;;;;;;5035094;28;20285;-81
2023/01/21 03:49:17;;;;;;;3.55;2.88;;;-2.70;99.90;;;;;;5035996;28;20199;-80
2023/01/21 03:51:50;;;;;;;0.40;0.40;;;-2.70;99.90;;;;;;5035799;28;20222;-76
2023/01/21 03:54:17;;;;;;;1.67;1.60;;;-2.70;99.90;;;;;;5034865;28;20848;-81
2023/01/21 03:56:44;;;;;;;0.40;0.40;;;-2.70;99.90;;;;;;5034828;28;20209;-82
2023/01/21 03:59:11;;;;;;;0.50;0.40;;;-2.70;99.90;;;;;;5036007;28;20208;-81
2023/01/21 04:01:38;;;;;;;0.50;0.50;;;-2.70;99.90;;;;;;5035272;28;20277;-82
2023/01/21 04:04:05;;;;;;;0.40;0.40;;;-2.80;99.90;;;;;;5035628;28;20202;-82
2023/01/21 04:06:32;;;;;;;0.40;0.40;;;-2.70;99.90;;;;;;5034830;28;20199;-82
2023/01/21 04:09:01;;;;;;;0.40;0.40;;;-2.70;99.90;;;;;;5033832;28;20216;-81
2023/01/21 04:11:27;;;;;;;2.45;2.35;;;-2.70;99.90;;;;;;5036613;28;20258;-80
2023/01/21 04:13:54;;;;;;;0.50;0.47;;;-2.70;99.90;;;;;;5035966;28;20283;-81
2023/01/21 04:16:22;;;;;;;0.40;0.40;;;-2.60;99.90;;;;;;5036057;28;20705;-82
2023/01/21 04:18:49;;;;;;;8.77;2.80;;;-2.60;99.90;;;;;;5036297;28;20223;-82
2023/01/21 04:21:16;;;;;;;0.50;0.40;;;-2.60;99.90;;;;;;5036728;28;20268;-82
2023/01/21 04:23:42;;;;;;;0.50;0.40;;;-2.60;99.90;;;;;;5036292;28;20218;-81
2023/01/21 04:26:11;;;;;;;0.40;0.40;;;-2.60;99.90;;;;;;5036203;28;20202;-82
2023/01/21 04:28:38;;;;;;;0.40;0.40;;;-2.60;99.90;;;;;;5035959;28;20243;-80
2023/01/21 04:31:04;;;;;;;0.40;0.40;;;-2.70;99.90;;;;;;5037006;28;20207;-82
2023/01/21 04:33:31;;;;;;;2.63;2.53;;;-2.60;99.90;;;;;;5036515;28;20195;-81
2023/01/21 04:35:59;;;;;;;0.40;0.40;;;-2.70;99.90;;;;;;5035726;28;20239;-82
2023/01/21 04:38:26;;;;;;;0.50;0.50;;;-2.60;99.90;;;;;;5037072;28;20290;-81
2023/01/21 04:40:53;;;;;;;5.55;1.55;;;-2.60;99.90;;;;;;5035272;28;20638;-81
2023/01/21 04:43:21;;;;;;;1.77;1.67;;;-2.70;99.90;;;;;;5035337;28;20672;-80
2023/01/21 04:45:49;;;;;;;1.70;1.60;;;-2.70;99.90;;;;;;5038156;28;20628;-82
2023/01/21 04:48:16;;;;;;;0.40;0.40;;;-2.70;99.90;;;;;;5038933;28;20225;-81
2023/01/21 04:50:42;;;;;;;1.55;0.90;;;-2.70;99.90;;;;;;5040145;28;20199;-80
2023/01/21 04:53:09;;;;;;;0.45;0.40;;;-2.70;99.90;;;;;;5039336;28;20206;-81
2023/01/21 04:55:36;;;;;;;0.50;0.40;;;-2.80;99.90;;;;;;5039297;28;20282;-82
2023/01/21 04:58:03;;;;;;;0.60;0.50;;;-2.80;99.90;;;;;;5038329;28;20242;-81
2023/01/21 05:00:31;;;;;;;0.50;0.50;;;-2.80;99.90;;;;;;5039487;28;20683;-82
2023/01/21 05:02:58;;;;;;;0.40;0.40;;;-2.90;99.90;;;;;;5039497;28;20278;-82
2023/01/21 05:05:25;;;;;;;2.45;2.25;;;-3.00;99.90;;;;;;5039491;28;20227;-82
2023/01/21 05:07:52;;;;;;;1.02;1.02;;;-2.90;99.90;;;;;;5039166;28;20254;-82
2023/01/21 05:10:19;;;;;;;0.40;0.40;;;-2.90;99.90;;;;;;5039256;28;20569;-82
2023/01/21 05:12:47;;;;;;;0.40;0.40;;;-2.90;99.90;;;;;;5038434;28;20202;-82
2023/01/21 05:15:14;;;;;;;0.57;0.57;;;-2.90;99.90;;;;;;5039099;28;20572;-80
2023/01/21 05:17:42;;;;;;;2.15;2.05;;;-2.90;99.90;;;;;;5037196;28;20219;-80
2023/01/21 05:20:12;;;;;;;0.40;0.40;;;-2.90;99.90;;;;;;5038596;28;20227;-82
2023/01/21 05:22:39;;;;;;;1.45;1.45;;;-3.00;99.90;;;;;;5038297;28;20726;-81
2023/01/21 05:25:06;;;;;;;2.53;2.38;;;-3.00;99.90;;;;;;5039066;28;20286;-82
2023/01/21 05:27:33;;;;;;;1.83;1.35;;;-3.00;99.90;;;;;;5038561;28;20242;-82
2023/01/21 05:30:00;;;;;;;0.50;0.50;;;-3.00;99.90;;;;;;5038290;28;20320;-82
2023/01/21 05:32:27;;;;;;;0.50;0.40;;;-3.00;99.90;;;;;;5038642;28;20297;-81
2023/01/21 05:34:55;;;;;;;0.40;0.40;;;-3.10;99.90;;;;;;5038123;28;20192;-81
2023/01/21 05:37:22;;;;;;;0.50;0.47;;;-3.10;99.90;;;;;;5038314;28;20215;-82
2023/01/21 05:39:48;;;;;;;2.58;2.35;;;-3.10;99.90;;;;;;5038098;28;20289;-82
2023/01/21 05:42:15;;;;;;;0.50;0.40;;;-3.20;99.90;;;;;;5038882;28;20764;-81
2023/01/21 05:44:42;;;;;;;3.65;3.42;;;-3.20;99.90;;;;;;5038908;28;20287;-81
2023/01/21 05:47:09;;;;;;;0.40;0.40;;;-3.10;99.90;;;;;;5038405;28;20306;-82
2023/01/21 05:49:36;;;;;;;0.50;0.50;;;-3.00;99.90;;;;;;5037714;28;20195;-82
2023/01/21 05:52:05;;;;;;;0.50;0.50;;;-3.00;99.90;;;;;;5038413;28;20226;-81
2023/01/21 05:54:32;;;;;;;0.60;0.60;;;-3.00;99.90;;;;;;5038724;28;20199;-81
2023/01/21 05:56:59;;;;;;;3.50;3.30;;;-3.00;99.90;;;;;;5038174;28;20233;-80
2023/01/21 05:59:25;;;;;;;0.68;0.68;;;-3.00;99.90;;;;;;5038062;28;20282;-81
2023/01/21 06:01:52;;;;;;;2.05;0.85;;;-3.00;99.90;;;;;;5039019;28;20219;-80
2023/01/21 06:04:19;;;;;;;0.40;0.40;;;-3.00;99.90;;;;;;5037989;28;20195;-81
2023/01/21 06:06:46;;;;;;;3.80;2.15;;;-3.00;99.90;;;;;;5038233;28;20218;-82
2023/01/21 06:09:14;;;;;;;15.32;14.13;;;-3.00;99.90;;;;;;5038064;28;20211;-82
2023/01/21 06:11:41;;;;;;;0.55;0.55;;;-3.10;99.90;;;;;;5037353;28;20218;-80
2023/01/21 06:14:08;;;;;;;0.40;0.40;;;-3.00;99.90;;;;;;5037985;28;20210;-82
2023/01/21 06:16:35;;;;;;;0.40;0.40;;;-3.00;99.90;;;;;;5037828;28;20286;-82
2023/01/21 06:19:01;;;;;;;0.50;0.50;;;-3.10;99.90;;;;;;5037242;28;20321;-82
2023/01/21 06:21:28;;;;;;;2.53;2.40;;;-3.00;99.90;;;;;;5037452;28;20294;-81
2023/01/21 06:23:56;;;;;;;0.60;0.60;;;-3.00;99.90;;;;;;5037448;28;20282;-81
2023/01/21 06:26:24;;;;;;;0.63;0.63;;;-3.00;99.90;;;;;;5037720;28;20198;-82
2023/01/21 06:28:51;;;;;;;0.40;0.40;;;-3.10;99.90;;;;;;5037787;28;20219;-82
2023/01/21 06:31:18;;;;;;;1.30;1.30;;;-3.10;99.90;;;;;;5036796;28;20281;-81
2023/01/21 06:33:44;;;;;;;0.52;0.52;;;-3.20;99.90;;;;;;5037114;28;20672;-82
2023/01/21 06:36:11;;;;;;;0.50;0.50;;;-3.30;99.90;;;;;;5036291;28;20206;-81
2023/01/21 06:38:38;;;;;;;0.60;0.60;;;-3.30;99.90;;;;;;5036433;28;20231;-82
2023/01/21 06:41:05;;;;;;;0.40;0.40;;;-3.30;99.90;;;;;;5036932;28;20267;-80
2023/01/21 06:43:33;;;;;;;1.77;1.67;;;-3.30;99.90;;;;;;5036672;28;20284;-82
2023/01/21 06:46:00;;;;;;;1.67;1.58;;;-3.30;99.90;;;;;;5037236;28;20230;-79
2023/01/21 06:48:27;;;;;;;2.88;2.78;;;-3.40;99.90;;;;;;5037099;28;20321;-82
2023/01/21 06:50:54;;;;;;;0.82;0.82;;;-3.40;99.90;;;;;;5036340;28;20627;-82
2023/01/21 06:53:20;;;;;;;0.40;0.40;;;-3.40;99.90;;;;;;5036236;28;20259;-82
2023/01/21 06:55:47;;;;;;;18.02;16.92;;;-3.50;99.90;;;;;;5036418;28;20202;-82
2023/01/21 06:58:14;;;;;;;1.77;1.67;;;-3.50;99.90;;;;;;5036273;28;20223;-80
2023/01/21 07:00:42;;;;;;;0.98;0.98;;;-3.40;99.90;;;;;;5037470;28;20282;-80
2023/01/21 07:03:09;;;;;;;0.98;0.95;;;-3.40;99.90;;;;;;5035805;28;20215;-80
2023/01/21 07:05:36;;;;;;;0.50;0.50;;;-3.40;99.90;;;;;;5035895;28;20294;-82
2023/01/21 07:08:04;;;;;;;0.40;0.40;;;-3.40;99.90;;;;;;5036277;28;20223;-83
2023/01/21 07:10:31;;;;;;;0.60;0.60;;;-3.40;99.90;;;;;;5036703;28;20623;-80
2023/01/21 07:12:58;;;;;;;0.50;0.40;;;-3.40;99.90;;;;;;5036956;28;20282;-82
2023/01/21 07:15:24;;;;;;;0.40;0.40;;;-3.40;99.90;;;;;;5035881;28;20199;-80
2023/01/21 07:17:53;;;;;;;0.40;0.40;;;-3.40;99.90;;;;;;5037175;28;20286;-81
2023/01/21 07:20:21;;;;;;;0.50;0.40;;;-3.40;99.90;;;;;;5036525;28;20595;-81
2023/01/21 07:22:48;;;;;;;0.95;0.95;;;-3.40;99.90;;;;;;5035646;28;20269;-82
2023/01/21 07:25:15;;;;;;;0.50;0.40;;;-3.40;99.90;;;;;;5034604;28;20572;-81
2023/01/21 07:27:42;;;;;;;1.58;1.48;;;-3.40;99.90;;;;;;5035027;28;20273;-81
2023/01/21 07:30:14;;;;;;;9.07;4.32;;;-3.40;99.90;;;;;;5035485;28;20191;-82
2023/01/21 07:32:41;;;;;;;0.45;0.40;;;-3.30;99.90;;;;;;5036028;28;20194;-82
2023/01/21 07:35:10;;;;;;;2.88;2.72;;;-3.30;99.90;;;;;;5034244;28;20195;-82
2023/01/21 07:37:37;;;;;;;0.50;0.40;;;-3.30;99.90;;;;;;5035583;28;20229;-82
2023/01/21 07:40:05;;;;;;;0.50;0.40;;;-3.30;99.90;;;;;;5036591;28;20230;-81
2023/01/21 07:42:32;;;;;;;3.22;3.13;;;-3.20;99.90;;;;;;5036215;28;20264;-81
2023/01/21 07:45:01;;;;;;;0.40;0.40;;;-3.10;99.90;;;;;;5035767;28;20278;-81
2023/01/21 07:47:28;;;;;;;0.40;0.40;;;-3.00;99.90;;;;;;5035891;28;20215;-83
2023/01/21 07:49:55;;;;;;;0.50;0.50;;;-2.90;99.90;;;;;;5034937;28;20194;-81
2023/01/21 07:52:23;;;;;;;0.50;0.50;;;-2.80;99.90;;;;;;5035031;28;20205;-83
2023/01/21 07:54:50;;;;;;;0.50;0.50;;;-2.70;99.90;;;;;;5035047;28;20727;-82
2023/01/21 07:57:17;;;;;;;1.00;1.00;;;-2.60;99.90;;;;;;5035189;28;20223;-81
2023/01/21 07:59:44;;;;;;;0.40;0.40;;;-2.50;99.90;;;;;;5035976;28;20325;-81
2023/01/21 08:02:12;;;;;;;0.40;0.40;;;-2.40;99.90;;;;;;5035090;28;20223;-81
2023/01/21 08:04:39;;;;;;;7.30;1.45;;;-2.30;99.90;;;;;;5034872;28;20196;-81
2023/01/21 08:07:08;;;;;;;1.58;1.58;;;-2.30;99.90;;;;;;5035731;28;20306;-82
2023/01/21 08:09:36;;;;;;;1.67;1.67;;;-2.30;99.90;;;;;;5034783;28;20661;-81
2023/01/21 08:12:04;;;;;;;1.05;1.05;;;-2.20;99.90;;;;;;5034761;28;20201;-81
2023/01/21 08:14:31;;;;;;;0.45;0.40;;;-2.10;99.90;;;;;;5035041;28;20227;-82
2023/01/21 08:16:57;;;;;;;2.08;1.98;;;-2.00;99.90;;;;;;5035537;28;20226;-81
2023/01/21 08:19:24;;;;;;;2.25;1.67;;;-1.90;99.90;;;;;;5035570;28;20286;-81
2023/01/21 08:21:51;;;;;;;0.52;0.52;;;-1.70;99.90;;;;;;5038899;28;20218;-82
2023/01/21 08:24:18;;;;;;;0.40;0.40;;;-1.70;99.90;;;;;;5038565;28;20195;-81
2023/01/21 08:26:47;;;;;;;0.40;0.40;;;-1.50;99.90;;;;;;5039011;28;20203;-82
2023/01/21 08:29:14;;;;;;;0.43;0.40;;;-1.40;99.90;;;;;;5038528;28;20280;-82
2023/01/21 08:31:41;;;;;;;0.40;0.40;;;-1.30;99.90;;;;;;5039685;28;20218;-82
2023/01/21 08:34:08;;;;;;;9.32;4.70;;;-1.30;99.90;;;;;;5039220;28;20609;-83
2023/01/21 08:36:37;;;;;;;0.40;0.40;;;-1.30;99.90;;;;;;5038779;28;20285;-82
2023/01/21 08:39:04;;;;;;;3.50;3.20;;;-1.20;99.90;;;;;;5039211;28;20192;-83
2023/01/21 08:41:31;;;;;;;3.72;3.42;;;-1.20;99.90;;;;;;5039351;28;20191;-83
2023/01/21 08:43:59;;;;;;;0.77;0.75;;;-1.10;99.90;;;;;;5039162;28;20661;-82
2023/01/21 08:46:26;;;;;;;0.50;0.50;;;-1.10;99.90;;;;;;5039311;28;20246;-82
2023/01/21 08:48:53;;;;;;;4.43;2.08;;;-1.10;99.90;;;;;;5038517;28;20344;-83
2023/01/21 08:51:20;;;;;;;4.03;3.80;;;-1.10;99.90;;;;;;5038281;28;20242;-82
2023/01/21 08:53:49;;;;;;;0.40;0.40;;;-1.10;99.90;;;;;;5039434;28;20282;-83
2023/01/21 08:56:16;;;;;;;2.15;2.05;;;-0.90;99.90;;;;;;5038618;28;20226;-83
2023/01/21 08:58:43;;;;;;;0.40;0.40;;;-0.80;99.90;;;;;;5038877;28;20715;-80
2023/01/21 09:01:14;;;;;;;6.90;3.85;;;-0.80;99.90;;;;;;5039416;28;20237;-83
2023/01/21 09:03:41;;;;;;;0.40;0.40;;;-0.70;99.90;;;;;;5038332;28;20225;-82
2023/01/21 09:06:08;;;;;;;0.63;0.50;;;-0.70;99.90;;;;;;5038593;28;20537;-83
2023/01/21 09:08:36;;;;;;;0.40;0.40;;;-0.70;99.90;;;;;;5041898;28;20237;-81
2023/01/21 09:11:05;;;;;;;3.60;2.90;;;-0.60;99.90;;;;;;5048635;28;20195;-80
2023/01/21 09:13:35;;;;;;;0.50;0.50;;;-0.60;99.90;;;;;;5047738;28;20191;-82
2023/01/21 09:16:03;;;;;;;0.45;0.40;;;-0.60;99.90;;;;;;5055378;28;20179;-80
2023/01/21 09:18:31;;;;;;;0.40;0.40;;;-0.60;99.90;;;;;;5039475;28;20216;-80
2023/01/21 09:21:01;;;;;;;0.80;0.80;;;-0.70;99.90;;;;;;5038541;28;20282;-81
2023/01/21 09:23:31;;;;;;;2.65;1.40;;;-0.80;99.90;;;;;;5038492;28;20305;-80
2023/01/21 09:26:03;;;;;;;0.50;0.50;;;-0.80;99.90;;;;;;5046491;28;20201;-80
2023/01/21 09:28:32;;;;;;;0.40;0.40;;;-0.70;99.90;;;;;;5055723;28;20223;-80
2023/01/21 09:31:00;;;;;;;0.40;0.40;;;-0.60;99.90;;;;;;5041603;28;20238;-82
2023/01/21 09:33:28;;;;;;;0.40;0.40;;;-0.60;99.90;;;;;;5038302;28;20250;-82
2023/01/21 09:35:57;;;;;;;4.20;3.17;;;-0.50;99.90;;;;;;5039181;28;20286;-81
2023/01/21 09:38:24;;;;;;;0.50;0.40;;;-0.50;99.90;;;;;;5037941;28;20690;-81
2023/01/21 09:40:52;;;;;;;0.40;0.40;;;-0.50;99.90;;;;;;5038373;28;20231;-82
2023/01/21 09:43:23;;;;;;;3.08;2.78;;;-0.40;99.90;;;;;;5037336;28;20273;-81
2023/01/21 09:45:53;;;;;;;0.90;0.90;;;-0.40;99.90;;;;;;5037315;28;20287;-83
2023/01/21 09:48:28;;;;;;;0.75;0.75;;;-0.40;99.90;;;;;;5036242;28;20222;-83
2023/01/21 09:50:59;;;;;;;0.47;0.40;;;-0.30;99.90;;;;;;5037003;28;20195;-81
2023/01/21 09:53:31;;;;;;;2.78;2.55;;;-0.20;99.90;;;;;;5037004;28;20188;-82
2023/01/21 09:56:02;;;;;;;2.85;2.70;;;-0.20;99.90;;;;;;5036296;28;20274;-81
2023/01/21 09:58:35;;;;;;;1.95;1.85;;;-0.10;99.90;;;;;;5036916;28;20313;-81
2023/01/21 10:01:08;;;;;;;0.50;0.40;;;0.00;99.90;;;;;;5036783;28;20190;-83
2023/01/21 10:03:40;;;;;;;0.75;0.75;;;0.10;99.90;;;;;;5036954;28;20219;-81
2023/01/21 10:06:20;;;;;;;0.40;0.40;;;0.10;99.90;;;;;;5036297;28;20235;-82
2023/01/21 10:09:12;;;;;;;0.55;0.52;;;0.10;99.90;;;;;;5035815;28;20303;-81
2023/01/21 10:11:54;;;;;;;8.02;1.40;;;0.20;99.90;;;;;;5036719;28;20231;-81
2023/01/21 10:14:44;;;;;;;0.50;0.40;;;0.20;99.90;;;;;;5035712;28;20290;-82
2023/01/21 10:17:15;;;;;;;1.08;1.08;;;0.30;99.90;;;;;;5035846;28;20309;-82
2023/01/21 10:19:49;;;;;;;0.50;0.40;;;0.40;99.90;;;;;;5035822;28;20190;-83
2023/01/21 10:22:22;;;;;;;1.50;1.50;;;0.30;99.90;;;;;;5035806;28;20201;-82
2023/01/21 10:24:53;;;;;;;0.50;0.40;;;0.30;99.90;;;;;;5035850;28;20198;-81
2023/01/21 10:27:22;;;;;;;0.50;0.50;;;0.40;99.90;;;;;;5036294;28;20219;-81
2023/01/21 10:29:52;;;;;;;0.50;0.40;;;0.40;99.90;;;;;;5036100;28;20623;-82
2023/01/21 10:32:25;;;;;;;0.70;0.70;;;0.40;99.90;;;;;;5035300;28;20286;-82
2023/01/21 10:35:03;;;;;;;0.50;0.40;;;0.50;99.90;;;;;;5035263;28;20191;-81
2023/01/21 10:37:36;;;;;;;1.98;1.85;;;0.50;99.90;;;;;;5035890;28;20250;-83
2023/01/21 10:40:12;;;;;;;0.50;0.40;;;0.50;99.90;;;;;;5035598;28;20218;-81
2023/01/21 10:42:52;;;;;;;1.25;1.17;;;0.50;99.90;;;;;;5036971;28;20179;-81
2023/01/21 10:45:31;;;;;;;3.45;3.22;;;0.60;99.90;;;;;;5035421;28;20615;-82
2023/01/21 10:48:05;;;;;;;1.00;0.98;;;0.60;99.90;;;;;;5035297;28;20656;-82
2023/01/21 10:50:41;;;;;;;0.50;0.40;;;0.60;99.90;;;;;;5035648;28;20285;-81
2023/01/21 10:53:15;;;;;;;0.50;0.40;;;0.70;99.90;;;;;;5036009;28;20238;-81
2023/01/21 10:56:00;;;;;;;1.55;1.45;;;0.70;99.90;;;;;;5036299;28;20266;-82
2023/01/21 10:58:32;;;;;;;0.50;0.40;;;0.80;99.90;;;;;;5034858;28;20313;-81
2023/01/21 11:01:02;;;;;;;2.20;1.85;;;0.80;99.90;;;;;;5035641;28;20564;-82
2023/01/21 11:03:40;;;;;;;0.70;0.70;;;0.80;99.90;;;;;;5034829;28;20211;-82
2023/01/21 11:06:11;;;;;;;6.20;2.13;;;0.80;99.90;;;;;;5038761;28;20564;-83
2023/01/21 11:08:42;;;;;;;0.50;0.43;;;0.80;99.90;;;;;;5035078;28;20226;-81
2023/01/21 11:11:10;;;;;;;4.20;3.05;;;0.90;99.90;;;;;;5035203;28;20206;-83
2023/01/21 11:13:37;;;;;;;0.50;0.50;;;0.90;99.90;;;;;;5035607;28;20191;-82
2023/01/21 11:16:05;;;;;;;0.50;0.50;;;1.00;99.90;;;;;;5035286;28;20225;-82
2023/01/21 11:18:36;;;;;;;0.90;0.90;;;1.10;99.90;;;;;;5034711;28;20224;-82
2023/01/21 11:21:11;;;;;;;0.50;0.40;;;1.20;99.90;;;;;;5036020;28;20270;-83
2023/01/21 11:23:40;;;;;;;0.50;0.40;;;1.30;99.90;;;;;;5051119;28;20198;-84
2023/01/21 11:26:15;;;;;;;0.50;0.40;;;1.50;99.90;;;;;;5039626;28;20241;-84
2023/01/21 11:28:42;;;;;;;1.77;1.60;;;1.60;99.90;;;;;;5038308;28;20696;-83
2023/01/21 11:31:13;;;;;;;0.60;0.60;;;1.60;99.90;;;;;;5039207;28;20253;-83
2023/01/21 11:33:41;;;;;;;8.23;2.25;;;1.50;99.90;;;;;;5039612;28;20262;-84
2023/01/21 11:36:14;;;;;;;1.90;1.80;;;1.60;99.90;;;;;;5038767;28;20258;-83
2023/01/21 11:39:01;;;;;;;0.50;0.40;;;1.70;99.90;;;;;;5038838;28;20218;-83
2023/01/21 11:41:29;;;;;;;0.50;0.40;;;1.90;99.90;;;;;;5039015;28;20294;-83
2023/01/21 11:44:09;;;;;;;0.82;0.82;;;2.10;99.90;;;;;;5038303;28;20215;-83
2023/01/21 11:46:37;;;;;;;0.50;0.40;;;2.20;99.90;;;;;;5039049;28;20195;-82
2023/01/21 11:49:25;;;;;;;0.50;0.40;;;1.90;99.90;;;;;;5038160;28;20226;-84
2023/01/21 11:52:16;;;;;;;0.50;0.50;;;1.90;99.90;;;;;;5038907;28;20198;-84
2023/01/21 11:54:45;;;;;;;0.50;0.40;;;1.80;99.90;;;;;;5038865;28;20202;-83
2023/01/21 11:57:28;;;;;;;5.70;5.15;;;1.80;99.90;;;;;;5042023;28;20223;-83
2023/01/21 12:00:00;;;;;;;0.50;0.50;;;1.80;99.90;;;;;;5042442;28;20581;-83
2023/01/21 12:02:30;;;;;;;3.15;2.00;;;1.80;99.90;;;;;;5041622;28;20254;-83
2023/01/21 12:05:01;;;;;;;4.68;3.10;;;2.00;99.90;;;;;;5041344;28;20223;-83
2023/01/21 12:07:30;;;;;;;1.05;1.05;;;2.00;99.90;;;;;;5042912;28;20215;-83
2023/01/21 12:10:05;;;;;;;2.05;1.75;;;2.00;99.90;;;;;;5041621;28;20210;-83
2023/01/21 12:12:44;;;;;;;0.93;0.93;;;2.00;99.90;;;;;;5041737;28;20271;-83
2023/01/21 12:15:24;;;;;;;1.13;0.73;;;2.00;99.90;;;;;;5041417;28;20278;-82
2023/01/21 12:18:01;;;;;;;2.42;2.33;;;1.90;99.90;;;;;;5042101;28;20218;-82
2023/01/21 12:20:35;;;;;;;2.13;1.90;;;1.90;99.90;;;;;;5042239;28;20242;-84
2023/01/21 12:23:21;;;;;;;1.92;1.10;;;2.00;99.90;;;;;;5042349;28;20222;-83
2023/01/21 12:25:55;;;;;;;2.22;1.75;;;2.00;99.90;;;;;;5041276;28;20242;-82
2023/01/21 12:28:48;;;;;;;2.13;2.05;;;1.90;99.90;;;;;;5041031;28;20609;-83
2023/01/21 12:31:26;;;;;;;7.72;3.50;;;1.90;99.90;;;;;;5041074;28;20666;-82
2023/01/21 12:33:58;;;;;;;0.98;0.93;;;2.00;99.90;;;;;;5040617;28;20601;-81
2023/01/21 12:36:30;;;;;;;0.93;0.93;;;1.90;99.90;;;;;;5039072;28;20186;-83
2023/01/21 12:39:13;;;;;;;0.50;0.50;;;1.90;99.90;;;;;;5038383;28;20230;-83
2023/01/21 12:41:44;;;;;;;1.40;1.30;;;2.00;99.90;;;;;;5039102;28;20183;-82
2023/01/21 12:44:24;;;;;;;0.50;0.50;;;2.10;99.90;;;;;;5039385;28;20215;-83
2023/01/21 12:46:55;;;;;;;0.50;0.40;;;2.10;99.90;;;;;;5039818;28;20186;-84
2023/01/21 12:49:26;;;;;;;1.20;1.20;;;2.20;99.90;;;;;;5038801;28;20187;-83
2023/01/21 12:51:59;;;;;;;1.05;0.95;;;2.30;99.90;;;;;;5039745;28;20617;-83
2023/01/21 12:54:37;;;;;;;0.50;0.43;;;2.40;99.90;;;;;;5039450;28;20248;-80
2023/01/21 12:57:14;;;;;;;14.50;13.27;;;2.40;99.90;;;;;;5038855;28;20247;-83
2023/01/21 12:59:46;;;;;;;1.15;0.82;;;2.50;99.90;;;;;;5040129;28;20207;-83
2023/01/21 13:02:21;;;;;;;0.50;0.50;;;2.40;99.90;;;;;;5038548;28;20186;-83
2023/01/21 13:04:54;;;;;;;3.17;1.40;;;2.30;99.90;;;;;;5039295;28;20282;-83
2023/01/21 13:07:37;;;;;;;5.88;3.60;;;2.30;99.90;;;;;;5038345;28;20589;-83
2023/01/21 13:10:13;;;;;;;6.10;4.72;;;2.40;99.90;;;;;;5039378;28;20708;-81